Home   Weather   USA   Middleborough   Past weeks
Flag for USA

Past Weather in Middleborough, Massachusetts, USA — Yesterday and Last 2 Weeks

Currently: 74 °F. Partly sunny. (Weather station: Taunton Municipal Airport, USA). See more current weather

Past Weather in Middleborough — Graph

°F

Middleborough Temperature Yesterday

Maximum temperature yesterday: 79 °F (at 2:52 pm)
Minimum temperature yesterday: 62 °F (at 10:52 pm)
Average temperature yesterday: 69 °F

High & Low Weather Summary for the Past Weeks

 TemperatureHumidityPressure
High93 °F (Jun 6, 1:52 pm)97% (Jun 3, 10:52 pm)30.24 "Hg (Jun 3, 10:52 pm)
Low44 °F (Jun 11, 4:52 am)30% (Jun 13, 2:52 pm)29.65 "Hg (Jun 15, 5:52 pm)
Average69 °F74%29.94 "Hg
* Reported Jun 1 3:52 pm — Jun 16 3:52 pm, Middleborough. Weather by CustomWeather, © 2021

Note: Actual official high and low records may vary slightly from our data, if they occured in-between our weather recording intervals... More about our weather records

Middleborough Weather History for the Previous 24 Hours

Scroll right to see more
 ConditionsComfort  
Time TempWeatherWind HumidityBarometerVisibility
3:52 pm
Wed, Jun 16
77 °FPartly sunny.8 mph31%29.77 "Hg10 mi
2:52 pm75 °FPassing clouds.8 mph31%29.77 "Hg10 mi
1:52 pm75 °FSunny.10 mph33%29.76 "Hg10 mi
12:52 pm76 °FPassing clouds.6 mph35%29.75 "Hg10 mi
11:52 am73 °FPassing clouds.3 mph37%29.76 "Hg10 mi
10:52 am72 °FSunny.7 mph49%29.76 "Hg10 mi
9:52 am69 °FSunny.6 mph57%29.75 "Hg10 mi
8:52 am67 °FPassing clouds.6 mph59%29.75 "Hg10 mi
7:52 am64 °FSunny.8 mph70%29.74 "Hg10 mi
6:52 am61 °FSunny.5 mph81%29.72 "Hg10 mi
5:52 am57 °FSunny.No wind93%29.70 "Hg10 mi
5:37 am55 °FFog.No wind96%29.69 "Hg2 mi
5:15 am54 °FFog.No wind97%29.69 "Hg0 mi
5:00 am55 °FFog.No wind96%29.68 "Hg1 mi
4:23 am57 °FClear.No wind93%29.68 "Hg8 mi
4:14 am57 °FFog.No wind96%29.68 "Hg2 mi
3:52 am58 °FClear.No wind97%29.68 "Hg10 mi
2:52 am60 °FFog.No wind93%29.67 "Hg6 mi
2:26 am59 °FFog.No wind96%29.68 "Hg3 mi
2:18 am60 °FFog.No wind93%29.68 "Hg2 mi
2:08 am60 °FFog.No wind96%29.68 "Hg3 mi
2:01 am60 °FFog.No wind96%29.68 "Hg2 mi
1:26 am58 °FFog.No wind97%29.68 "Hg5 mi
1:17 am58 °FFog.No wind93%29.68 "Hg2 mi
12:52 am58 °FFog.No wind97%29.68 "Hg1 mi
12:42 am58 °FFog.No wind97%29.68 "Hg2 mi
12:21 am59 °FFog.No wind96%29.68 "Hg4 mi
12:00 am60 °FFog.No wind93%29.68 "Hg4 mi
10:52 pm
Tue, Jun 15
62 °FOvercast.7 mph93%29.69 "Hg8 mi
9:52 pm63 °FMostly cloudy.No wind93%29.69 "Hg10 mi
9:21 pm64 °FLight rain. Mostly cloudy.5 mph90%29.69 "Hg9 mi
9:00 pm67 °FStrong thunderstorms. Partly cloudy.15 mph85%29.71 "Hg2 mi
7:52 pm73 °FSunny.5 mph76%29.67 "Hg10 mi
6:52 pm76 °FSunny.7 mph67%29.66 "Hg10 mi
5:52 pm78 °FSunny.7 mph60%29.65 "Hg10 mi
Weather by CustomWeather, © 2021

See weather overview